createdAt,value
2019-02-21T00:00:55.938Z,16.90
2019-02-21T00:03:27.936Z,17.33
2019-02-21T00:05:59.932Z,18.43
2019-02-21T00:08:31.924Z,19.07
2019-02-21T00:11:03.922Z,17.13
2019-02-21T00:13:35.964Z,16.97
2019-02-21T00:16:07.938Z,18.40
2019-02-21T00:18:39.937Z,16.07
2019-02-21T00:21:11.935Z,18.73
2019-02-21T00:23:43.944Z,17.40
2019-02-21T00:26:15.931Z,18.73
2019-02-21T00:28:47.935Z,20.43
2019-02-21T00:31:19.965Z,16.93
2019-02-21T00:33:51.936Z,18.63
2019-02-21T00:36:23.928Z,18.07
2019-02-21T00:38:55.884Z,17.47
2019-02-21T00:41:27.906Z,17.90
2019-02-21T00:43:59.887Z,18.53
2019-02-21T00:46:31.908Z,19.87
2019-02-21T00:49:03.890Z,21.43
2019-02-21T00:51:35.890Z,17.53
2019-02-21T00:54:07.897Z,17.73
2019-02-21T00:56:39.899Z,20.20
2019-02-21T00:59:11.891Z,19.67
2019-02-21T01:01:43.872Z,21.37
2019-02-21T01:04:15.841Z,19.30
2019-02-21T01:06:47.847Z,18.10
2019-02-21T01:09:19.808Z,18.50
2019-02-21T01:11:51.917Z,22.13
2019-02-21T01:14:23.888Z,18.90
2019-02-21T01:16:55.917Z,19.23
2019-02-21T01:19:27.853Z,20.07
2019-02-21T01:21:59.869Z,19.43
2019-02-21T01:24:31.815Z,20.47
2019-02-21T01:27:03.847Z,17.07
2019-02-21T01:29:35.831Z,17.57
2019-02-21T01:32:07.802Z,18.03
2019-02-21T01:34:39.759Z,19.33
2019-02-21T01:37:11.758Z,18.47
2019-02-21T01:39:43.720Z,18.53
2019-02-21T01:42:15.726Z,17.70
2019-02-21T01:44:47.864Z,18.33
2019-02-21T01:47:19.898Z,17.90
2019-02-21T01:49:51.853Z,17.13
2019-02-21T01:52:23.846Z,18.83
2019-02-21T01:54:55.815Z,18.97
2019-02-21T01:57:28.629Z,19.27
2019-02-21T02:00:00.789Z,20.10
2019-02-21T02:02:32.758Z,17.20
2019-02-21T02:05:05.421Z,17.53
2019-02-21T02:07:37.891Z,18.43
2019-02-21T02:10:09.979Z,20.37
2019-02-21T02:12:41.979Z,18.30
2019-02-21T02:15:14.001Z,18.17
2019-02-21T02:17:46.020Z,19.23
2019-02-21T02:20:18.048Z,23.30
2019-02-21T02:22:50.046Z,20.07
2019-02-21T02:25:22.038Z,20.83
2019-02-21T02:27:54.011Z,21.33
2019-02-21T02:30:25.999Z,21.97
2019-02-21T02:32:57.997Z,23.07
2019-02-21T02:35:29.986Z,20.23
2019-02-21T02:38:01.970Z,22.57
2019-02-21T02:40:33.961Z,23.23
2019-02-21T02:43:05.911Z,21.20
2019-02-21T02:45:37.905Z,25.50
2019-02-21T02:48:09.868Z,22.63
2019-02-21T02:50:41.966Z,23.47
2019-02-21T02:53:13.923Z,30.80
2019-02-21T02:55:45.902Z,23.63
2019-02-21T02:58:17.870Z,23.63
2019-02-21T03:04:30.043Z,26.07
2019-02-21T03:07:02.019Z,22.67
2019-02-21T03:09:34.006Z,25.87
2019-02-21T03:12:05.974Z,23.43
2019-02-21T03:14:37.934Z,23.90
2019-02-21T03:17:09.901Z,28.20
2019-02-21T03:19:41.839Z,26.87
2019-02-21T03:22:13.822Z,28.07
2019-02-21T03:24:45.753Z,23.97
2019-02-21T03:27:17.778Z,27.03
2019-02-21T03:29:49.759Z,25.50
2019-02-21T03:32:21.743Z,20.87
2019-02-21T03:34:53.686Z,25.87
2019-02-21T03:37:25.670Z,22.63
2019-02-21T03:39:57.644Z,23.80
2019-02-21T03:42:29.627Z,24.10
2019-02-21T03:45:01.571Z,26.17
2019-02-21T03:47:33.557Z,27.27
2019-02-21T03:50:05.621Z,24.00
2019-02-21T03:52:37.594Z,26.03
2019-02-21T03:55:09.527Z,27.43
2019-02-21T03:57:41.511Z,21.57
2019-02-21T04:03:32.767Z,24.30
2019-02-21T04:06:04.716Z,27.13
2019-02-21T04:08:36.693Z,26.47
2019-02-21T04:11:08.649Z,26.37
2019-02-21T04:13:40.667Z,26.43
2019-02-21T04:16:12.642Z,24.63
2019-02-21T04:18:44.620Z,27.37
2019-02-21T04:21:16.592Z,23.23
2019-02-21T04:23:48.568Z,26.53
2019-02-21T04:26:20.507Z,25.80
2019-02-21T04:28:52.487Z,30.03
2019-02-21T04:31:24.442Z,28.23
2019-02-21T04:33:56.416Z,25.63
2019-02-21T04:36:28.388Z,26.97
2019-02-21T04:39:00.386Z,31.70
2019-02-21T04:41:32.344Z,28.20
2019-02-21T04:44:04.354Z,32.37
2019-02-21T04:46:36.294Z,27.67
2019-02-21T04:49:08.370Z,32.40
2019-02-21T04:51:40.333Z,29.07
2019-02-21T04:54:12.329Z,27.50
2019-02-21T04:56:44.289Z,31.73
2019-02-21T04:59:16.250Z,31.80
2019-02-21T05:01:48.206Z,27.23
2019-02-21T05:04:20.191Z,27.97
2019-02-21T05:06:52.280Z,26.57
2019-02-21T05:09:26.916Z,27.00
2019-02-21T05:11:58.170Z,23.37
2019-02-21T05:14:30.178Z,27.53
2019-02-21T05:17:02.175Z,29.43
2019-02-21T05:19:34.193Z,27.37
2019-02-21T05:22:06.185Z,28.60
2019-02-21T05:24:38.221Z,27.20
2019-02-21T05:27:22.765Z,33.13
2019-02-21T05:29:54.926Z,31.80
2019-02-21T05:32:55.319Z,27.20
2019-02-21T05:35:36.956Z,26.77
2019-02-21T05:38:28.492Z,28.17
2019-02-21T05:41:18.988Z,30.83
2019-02-21T05:44:10.552Z,28.73
2019-02-21T05:46:55.837Z,32.37
2019-02-21T05:49:38.086Z,30.93
2019-02-21T05:52:20.792Z,30.27
2019-02-21T05:54:59.571Z,28.37
2019-02-21T05:57:40.169Z,28.50
2019-02-21T06:00:29.323Z,31.63
2019-02-21T06:03:19.457Z,33.20
2019-02-21T06:06:09.958Z,40.77
2019-02-21T06:08:58.108Z,36.63
2019-02-21T06:11:55.516Z,29.93
2019-02-21T06:14:44.054Z,29.73
2019-02-21T06:17:50.723Z,27.60
2019-02-21T06:20:45.054Z,29.67
2019-02-21T06:23:39.540Z,28.03
2019-02-21T06:26:18.926Z,29.57
2019-02-21T06:29:13.482Z,29.30
2019-02-21T06:31:45.436Z,29.13
2019-02-21T06:34:17.396Z,30.03
2019-02-21T06:36:49.359Z,31.80
2019-02-21T06:39:21.365Z,47.17
2019-02-21T06:41:59.564Z,44.17
2019-02-21T06:44:27.221Z,37.37
2019-02-21T06:46:59.198Z,35.10
2019-02-21T06:49:32.788Z,32.57
2019-02-21T06:52:05.123Z,35.13
2019-02-21T06:54:37.117Z,37.07
2019-02-21T06:57:09.136Z,33.47
2019-02-21T06:59:44.509Z,34.07
2019-02-21T07:02:15.037Z,31.67
2019-02-21T07:04:47.019Z,33.37
2019-02-21T07:07:19.017Z,31.63
2019-02-21T07:09:51.021Z,33.93
2019-02-21T07:12:23.028Z,32.90
2019-02-21T07:14:55.068Z,30.10
2019-02-21T07:17:27.575Z,30.40
2019-02-21T07:20:01.510Z,28.70
2019-02-21T07:22:33.451Z,30.67
2019-02-21T07:25:25.064Z,28.97
2019-02-21T07:27:58.348Z,29.77
2019-02-21T07:30:30.543Z,30.53
2019-02-21T07:33:03.843Z,32.10
2019-02-21T07:35:35.869Z,29.93
2019-02-21T07:38:07.825Z,29.63
2019-02-21T07:40:39.857Z,28.27
2019-02-21T07:43:12.899Z,26.37
2019-02-21T07:45:45.066Z,33.07
2019-02-21T07:48:17.140Z,31.57
2019-02-21T07:50:49.128Z,28.40
2019-02-21T07:53:21.088Z,26.83
2019-02-21T07:55:55.690Z,27.67
2019-02-21T07:58:26.955Z,29.50
2019-02-21T08:00:58.975Z,26.53
2019-02-21T08:03:43.473Z,29.10
2019-02-21T08:06:04.878Z,30.40
2019-02-21T08:08:36.882Z,28.67
2019-02-21T08:11:08.890Z,27.43
2019-02-21T08:13:40.870Z,26.90
2019-02-21T08:16:12.925Z,31.07
2019-02-21T08:18:44.933Z,26.13
2019-02-21T08:21:16.971Z,27.47
2019-02-21T08:23:50.882Z,26.37
2019-02-21T08:26:22.832Z,28.50
2019-02-21T08:28:54.793Z,27.57
2019-02-21T08:31:26.785Z,27.00
2019-02-21T08:34:05.245Z,26.70
2019-02-21T08:36:37.235Z,29.87
2019-02-21T08:39:09.587Z,28.37
2019-02-21T08:41:41.587Z,26.03
2019-02-21T08:44:13.548Z,25.87
2019-02-21T08:46:45.551Z,25.60
2019-02-21T08:49:17.541Z,27.47
2019-02-21T08:51:49.534Z,27.93
2019-02-21T08:54:21.528Z,26.37
2019-02-21T08:56:54.028Z,25.83
2019-02-21T08:59:26.029Z,24.63
2019-02-21T09:01:58.066Z,27.47
2019-02-21T09:04:30.079Z,26.40
2019-02-21T09:07:02.113Z,26.33
2019-02-21T09:09:34.148Z,27.10
2019-02-21T09:12:06.134Z,23.97
2019-02-21T09:14:38.122Z,25.10
2019-02-21T09:17:10.121Z,25.67
2019-02-21T09:19:42.099Z,26.70
2019-02-21T09:22:14.094Z,24.83
2019-02-21T09:24:46.083Z,23.70
2019-02-21T09:27:18.073Z,23.33
2019-02-21T09:29:50.087Z,22.83
2019-02-21T09:32:22.081Z,25.17
2019-02-21T09:34:54.067Z,24.50
2019-02-21T09:37:26.028Z,23.83
2019-02-21T09:39:58.019Z,23.30
2019-02-21T09:42:29.999Z,23.60
2019-02-21T09:45:01.995Z,22.37
2019-02-21T09:47:33.949Z,23.33
2019-02-21T09:50:06.528Z,22.13
2019-02-21T09:52:38.513Z,22.30
2019-02-21T09:55:11.391Z,25.30
2019-02-21T09:57:43.366Z,24.13
2019-02-21T10:00:17.139Z,24.53
2019-02-21T10:02:49.116Z,24.23
2019-02-21T10:05:21.109Z,24.37
2019-02-21T10:07:53.050Z,21.87
2019-02-21T10:10:25.084Z,24.83
2019-02-21T10:12:57.078Z,22.63
2019-02-21T10:15:31.423Z,24.83
2019-02-21T10:18:02.971Z,21.30
2019-02-21T10:20:35.018Z,22.97
2019-02-21T10:23:06.999Z,22.60
2019-02-21T10:25:39.021Z,20.83
2019-02-21T10:28:10.972Z,20.80
2019-02-21T10:30:43.003Z,21.53
2019-02-21T10:33:14.959Z,23.13
2019-02-21T10:35:46.952Z,19.80
2019-02-21T10:38:18.969Z,22.93
2019-02-21T10:40:50.972Z,20.60
2019-02-21T10:43:22.985Z,21.23
2019-02-21T10:45:54.997Z,22.13
2019-02-21T10:48:26.981Z,20.93
2019-02-21T10:50:58.980Z,21.70
2019-02-21T10:53:30.964Z,21.03
2019-02-21T10:56:02.962Z,20.33
2019-02-21T10:58:34.968Z,18.60
2019-02-21T11:01:06.981Z,18.03
2019-02-21T11:03:38.965Z,17.77
2019-02-21T11:06:10.957Z,18.57
2019-02-21T11:08:42.984Z,16.70
2019-02-21T11:11:17.098Z,17.93
2019-02-21T11:13:48.927Z,17.63
2019-02-21T11:16:20.951Z,15.70
2019-02-21T11:18:52.940Z,16.73
2019-02-21T11:21:24.991Z,16.93
2019-02-21T11:23:56.960Z,16.10
2019-02-21T11:26:28.975Z,17.67
2019-02-21T11:29:02.078Z,14.90
2019-02-21T11:31:34.073Z,15.23
2019-02-21T11:34:06.111Z,16.30
2019-02-21T11:36:38.124Z,15.20
2019-02-21T11:39:10.246Z,17.73
2019-02-21T11:41:43.854Z,14.43
2019-02-21T11:44:16.022Z,18.10
2019-02-21T11:46:48.021Z,13.72
2019-02-21T11:49:20.006Z,15.93
2019-02-21T11:51:52.017Z,17.63
2019-02-21T11:54:26.716Z,16.10
2019-02-21T11:56:57.975Z,16.52
2019-02-21T11:59:30.048Z,15.63
2019-02-21T12:02:02.033Z,15.98
2019-02-21T12:04:35.939Z,15.72
2019-02-21T12:07:07.930Z,14.80
2019-02-21T12:09:39.974Z,16.15
2019-02-21T12:12:11.963Z,15.30
2019-02-21T12:14:44.006Z,15.98
2019-02-21T12:17:16.005Z,16.15
2019-02-21T12:19:47.977Z,15.50
2019-02-21T12:22:21.109Z,15.72
2019-02-21T12:24:53.210Z,16.17
2019-02-21T12:27:26.304Z,15.13
2019-02-21T12:29:58.314Z,15.95
2019-02-21T12:32:30.315Z,17.30
2019-02-21T12:35:02.356Z,16.10
2019-02-21T12:37:34.466Z,15.80
2019-02-21T12:40:08.368Z,16.48
2019-02-21T12:42:40.444Z,16.00
2019-02-21T12:45:14.367Z,17.10
2019-02-21T12:47:50.845Z,15.93
2019-02-21T12:50:20.279Z,15.35
2019-02-21T12:52:52.272Z,15.43
2019-02-21T12:55:29.486Z,14.73
2019-02-21T12:57:58.238Z,13.97
2019-02-21T13:00:30.259Z,14.75
2019-02-21T13:03:02.376Z,16.30
2019-02-21T13:05:40.955Z,15.80
2019-02-21T13:08:08.654Z,13.53
2019-02-21T13:10:40.688Z,15.25
2019-02-21T13:13:12.665Z,16.02
2019-02-21T13:15:44.683Z,13.68
2019-02-21T13:18:16.674Z,15.20
2019-02-21T13:20:48.690Z,13.32
2019-02-21T13:23:22.494Z,15.93
2019-02-21T13:25:54.534Z,16.73
2019-02-21T13:28:26.516Z,13.72
2019-02-21T13:30:58.512Z,13.83
2019-02-21T13:33:30.497Z,14.85
2019-02-21T13:36:02.648Z,14.30
2019-02-21T13:38:34.650Z,13.83
2019-02-21T13:41:06.688Z,19.10
2019-02-21T13:43:38.676Z,14.28
2019-02-21T13:46:10.679Z,14.87
2019-02-21T13:48:42.681Z,14.78
2019-02-21T13:51:14.653Z,15.80
2019-02-21T13:53:46.888Z,14.93
2019-02-21T13:56:18.902Z,14.87
2019-02-21T13:58:50.942Z,16.17
2019-02-21T14:01:22.903Z,14.65
2019-02-21T14:03:56.718Z,15.45
2019-02-21T14:06:28.862Z,15.25
2019-02-21T14:09:00.865Z,15.15
2019-02-21T14:11:32.961Z,14.75
2019-02-21T14:14:05.052Z,15.75
2019-02-21T14:16:46.086Z,14.55
2019-02-21T14:19:11.133Z,16.52
2019-02-21T14:21:43.848Z,16.07
2019-02-21T14:24:16.003Z,16.32
2019-02-21T14:26:48.300Z,16.80
2019-02-21T14:29:20.417Z,17.77
2019-02-21T14:31:52.447Z,16.15
2019-02-21T14:34:24.493Z,16.20
2019-02-21T14:36:56.470Z,17.80
2019-02-21T14:39:28.637Z,21.33
2019-02-21T14:42:00.666Z,18.57
2019-02-21T14:44:32.846Z,19.00
2019-02-21T14:47:08.062Z,19.43
2019-02-21T14:49:40.137Z,19.73
2019-02-21T14:52:12.150Z,18.92
2019-02-21T14:54:44.154Z,20.25
2019-02-21T14:57:16.421Z,18.80
2019-02-21T14:59:50.299Z,15.47
2019-02-21T15:02:22.409Z,18.45
2019-02-21T15:04:54.396Z,17.35
2019-02-21T15:07:26.539Z,21.57
2019-02-21T15:09:58.600Z,19.67
2019-02-21T15:12:30.622Z,17.12
2019-02-21T15:15:03.146Z,20.00
2019-02-21T15:17:37.177Z,19.15
2019-02-21T15:20:10.451Z,18.73
2019-02-21T15:22:42.586Z,16.23
2019-02-21T15:25:14.584Z,18.70
2019-02-21T15:27:46.804Z,16.47
2019-02-21T15:30:20.826Z,17.83
2019-02-21T15:32:52.919Z,16.40
2019-02-21T15:35:25.045Z,18.87
2019-02-21T15:37:57.182Z,17.75
2019-02-21T15:40:29.241Z,23.20
2019-02-21T15:43:01.521Z,22.00
2019-02-21T15:45:33.532Z,19.90
2019-02-21T15:48:07.390Z,18.65
2019-02-21T15:50:39.987Z,20.60
2019-02-21T15:53:12.062Z,18.10
2019-02-21T15:55:44.085Z,17.23
2019-02-21T15:58:16.099Z,19.30
2019-02-21T16:00:48.123Z,16.63
2019-02-21T16:03:20.174Z,18.05
2019-02-21T16:05:52.355Z,17.07
2019-02-21T16:08:26.197Z,15.83
2019-02-21T16:10:58.227Z,17.07
2019-02-21T16:13:30.734Z,15.23
2019-02-21T16:16:02.915Z,14.77
2019-02-21T16:18:35.229Z,15.57
2019-02-21T16:21:07.296Z,15.73
2019-02-21T16:23:39.321Z,16.37
2019-02-21T16:26:11.354Z,15.07
2019-02-21T16:28:43.395Z,13.40
2019-02-21T16:31:16.520Z,14.83
2019-02-21T16:33:48.547Z,13.37
2019-02-21T16:36:22.358Z,14.00
2019-02-21T16:38:54.481Z,15.00
2019-02-21T16:41:36.068Z,14.23
2019-02-21T16:44:00.662Z,15.90
2019-02-21T16:46:32.819Z,16.77
2019-02-21T16:49:04.955Z,18.30
2019-02-21T16:51:37.129Z,15.57
2019-02-21T16:54:10.368Z,15.30
2019-02-21T16:56:42.379Z,17.37
2019-02-21T16:59:14.569Z,23.83
2019-02-21T17:01:46.646Z,19.83
2019-02-21T17:04:20.547Z,23.03
2019-02-21T17:06:52.625Z,22.90
2019-02-21T17:09:24.652Z,20.53
2019-02-21T17:11:56.802Z,19.57
2019-02-21T17:14:28.860Z,18.03
2019-02-21T17:17:00.893Z,18.27
2019-02-21T17:19:32.992Z,17.63
2019-02-21T17:22:05.021Z,19.67
2019-02-21T17:24:37.032Z,18.83
2019-02-21T17:27:09.163Z,17.20
2019-02-21T17:29:41.163Z,17.10
2019-02-21T17:32:13.194Z,15.93
2019-02-21T17:37:58.442Z,25.20
2019-02-21T17:40:30.516Z,26.13
2019-02-21T17:43:02.554Z,25.30
2019-02-21T17:45:34.566Z,21.43
2019-02-21T17:48:06.691Z,18.50
2019-02-21T17:50:38.783Z,23.53
2019-02-21T17:53:10.854Z,21.57
2019-02-21T17:55:42.926Z,22.50
2019-02-21T17:58:17.168Z,21.97
2019-02-21T18:00:48.939Z,22.20
2019-02-21T18:03:21.028Z,20.20
2019-02-21T18:05:55.902Z,23.40
2019-02-21T18:08:27.064Z,20.63
2019-02-21T18:10:59.141Z,21.10
2019-02-21T18:13:31.249Z,22.67
2019-02-21T18:16:03.322Z,18.27
2019-02-21T18:18:35.398Z,19.90
2019-02-21T18:21:08.337Z,18.43
2019-02-21T18:23:41.523Z,22.17
2019-02-21T18:26:16.492Z,22.13
2019-02-21T18:28:48.611Z,21.33
2019-02-21T18:31:20.687Z,20.00
2019-02-21T18:33:52.787Z,19.80
2019-02-21T18:36:24.853Z,19.40
2019-02-21T18:38:56.997Z,19.77
2019-02-21T18:41:29.164Z,21.40
2019-02-21T18:44:01.292Z,19.77
2019-02-21T18:46:33.425Z,18.13
2019-02-21T18:49:05.580Z,20.00
2019-02-21T18:51:37.675Z,18.03
2019-02-21T18:54:09.769Z,21.77
2019-02-21T18:56:41.937Z,19.07
2019-02-21T18:59:14.177Z,18.77
2019-02-21T19:01:46.300Z,23.37
2019-02-21T19:04:18.428Z,20.73
2019-02-21T19:06:50.581Z,21.77
2019-02-21T19:09:22.721Z,18.50
2019-02-21T19:11:54.861Z,18.60
2019-02-21T19:14:27.107Z,16.53
2019-02-21T19:16:59.211Z,18.10
2019-02-21T19:19:31.343Z,18.23
2019-02-21T19:22:03.444Z,19.50
2019-02-21T19:24:37.055Z,18.90
2019-02-21T19:27:09.472Z,18.10
2019-02-21T19:29:41.688Z,17.47
2019-02-21T19:32:13.819Z,16.00
2019-02-21T19:34:45.883Z,19.07
2019-02-21T19:37:17.974Z,19.10
2019-02-21T19:39:51.223Z,18.00
2019-02-21T19:42:23.391Z,19.63
2019-02-21T19:44:55.415Z,18.87
2019-02-21T19:47:27.561Z,18.67
2019-02-21T19:49:59.766Z,18.67
2019-02-21T19:52:31.772Z,18.33
2019-02-21T19:55:05.171Z,19.87
2019-02-21T19:57:37.439Z,19.67
2019-02-21T20:00:13.710Z,16.87
2019-02-21T20:02:45.850Z,17.03
2019-02-21T20:05:17.888Z,17.93
2019-02-21T20:07:50.168Z,17.83
2019-02-21T20:10:22.508Z,19.93
2019-02-21T20:12:56.620Z,19.27
2019-02-21T20:15:28.706Z,17.27
2019-02-21T20:18:01.906Z,18.17
2019-02-21T20:20:33.931Z,19.37
2019-02-21T20:23:06.124Z,16.63
2019-02-21T20:25:39.426Z,19.27
2019-02-21T20:28:11.629Z,19.17
2019-02-21T20:30:43.746Z,19.73
2019-02-21T20:33:15.979Z,18.47
2019-02-21T20:35:49.269Z,18.93
2019-02-21T20:38:31.548Z,22.33
2019-02-21T20:40:56.942Z,18.07
2019-02-21T20:43:29.290Z,18.20
2019-02-21T20:46:01.656Z,19.57
2019-02-21T20:48:33.754Z,19.30
2019-02-21T20:51:05.834Z,19.07
2019-02-21T20:53:38.035Z,20.17
2019-02-21T20:56:10.151Z,19.77
2019-02-21T20:58:42.274Z,19.10
2019-02-21T21:01:15.099Z,17.93
2019-02-21T21:03:47.186Z,17.03
2019-02-21T21:06:19.383Z,17.50
2019-02-21T21:08:51.661Z,17.23
2019-02-21T21:11:23.709Z,18.17
2019-02-21T21:13:55.774Z,17.73
2019-02-21T21:16:27.812Z,19.60
2019-02-21T21:18:59.911Z,20.20
2019-02-21T21:21:32.053Z,19.33
2019-02-21T21:24:04.218Z,19.70
2019-02-21T21:26:36.371Z,19.40
2019-02-21T21:29:08.380Z,17.87
2019-02-21T21:31:40.440Z,18.77
2019-02-21T21:34:12.477Z,18.43
2019-02-21T21:36:44.643Z,18.07
2019-02-21T21:39:16.909Z,19.20
2019-02-21T21:41:49.109Z,20.97
2019-02-21T21:44:21.267Z,19.10
2019-02-21T21:46:53.354Z,21.00
2019-02-21T21:49:25.426Z,18.90
2019-02-21T21:51:57.510Z,19.80
2019-02-21T21:54:29.618Z,17.80
2019-02-21T21:57:01.884Z,17.60
2019-02-21T21:59:33.904Z,17.43
2019-02-21T22:02:05.951Z,18.03
2019-02-21T22:04:37.962Z,15.73
2019-02-21T22:07:11.083Z,17.03
2019-02-21T22:09:43.159Z,17.70
2019-02-21T22:12:15.216Z,16.97
2019-02-21T22:14:47.238Z,17.40
2019-02-21T22:17:21.134Z,17.77
2019-02-21T22:19:53.190Z,16.23
2019-02-21T22:22:25.237Z,17.40
2019-02-21T22:24:58.412Z,17.80
2019-02-21T22:27:30.508Z,19.93
2019-02-21T22:30:23.961Z,19.03
2019-02-21T22:32:56.391Z,17.07
2019-02-21T22:35:28.509Z,18.30
2019-02-21T22:38:00.672Z,20.13
2019-02-21T22:40:32.635Z,19.00
2019-02-21T22:43:04.654Z,20.40
2019-02-21T22:45:36.742Z,20.03
2019-02-21T22:48:08.744Z,32.30
2019-02-21T22:50:40.744Z,34.73
2019-02-21T22:53:12.750Z,29.23
2019-02-21T22:55:44.745Z,22.73
2019-02-21T22:58:16.755Z,19.80
2019-02-21T23:00:58.769Z,19.80
2019-02-21T23:03:42.623Z,19.23
2019-02-21T23:06:39.274Z,20.77
2019-02-21T23:09:27.466Z,19.10
2019-02-21T23:11:55.823Z,17.97
2019-02-21T23:14:28.137Z,20.07
2019-02-21T23:17:00.102Z,17.93
2019-02-21T23:19:32.105Z,19.47
2019-02-21T23:22:04.084Z,18.87
2019-02-21T23:24:36.083Z,19.63
2019-02-21T23:27:08.037Z,19.00
2019-02-21T23:29:40.044Z,20.33
2019-02-21T23:32:12.013Z,17.37
2019-02-21T23:34:44.630Z,18.70
2019-02-21T23:37:16.597Z,18.73
2019-02-21T23:39:48.570Z,17.60
2019-02-21T23:42:22.671Z,18.10
2019-02-21T23:44:54.617Z,18.03
2019-02-21T23:47:26.617Z,17.23
2019-02-21T23:49:58.614Z,17.93
2019-02-21T23:52:30.596Z,17.10
2019-02-21T23:55:02.733Z,17.50
2019-02-21T23:57:34.691Z,19.60
